ePrivacy and GPDR Cookie Consent by Cookie Consent
EmailTwitter


Surface observations / Europe / LIRF (16242)

Regions: Quebec | Canada | USA | Europe | France | UK | Elsewhere
Station
Display
Info & Location for LIRF (16242) | Help decoding METAR

Weather Conditions observed on 2022/08/18 at 07:20 UTC (LIRF)

Temperature: 34.0 Celsius.

Dewpoint: 16.0 Celsius.

Relative Humidity: 34%

Humidex 39.

Winds: Southeast at 33 km/h or 18 knots.

Mean Sea level Pressure: 100.70 kilopascals.

Coded METAR:

LIRF 180720Z 13018KT CAVOK 34/16 Q1007 NOSIG=